Time;durP1;ratioP1;P1;durP2;ratioP2;P2;SDS_P1;SDS_P2;PMS_P1;PMS_P2;Temp;Humidity;BMP_temperature;BMP_pressure;BME280_temperature;BME280_humidity;BME280_pressure;Samples;Min_cycle;Max_cycle;Signal;HPM_P1;HPM_P2
2022/06/07 00:01:09;;;;;;;;;;;;;;;18.73;69.49;100579.28;5025534;28;19920;-70
2022/06/07 00:03:34;;;;;;;;;;;;;;;18.73;69.31;100579.28;5013369;28;19960;-72
2022/06/07 00:06:00;;;;;;;;;;;;;;;18.65;69.67;100568.88;5012745;28;20309;-69
2022/06/07 00:08:26;;;;;;;;;;;;;;;18.68;69.65;100574.28;5013509;28;19913;-69
2022/06/07 00:10:51;;;;;;;;;;;;;;;18.55;70.25;100567.84;5013164;28;20385;-69
2022/06/07 00:13:18;;;;;;;;;;;;;;;18.54;70.43;100568.25;5011822;28;20337;-70
2022/06/07 00:15:44;;;;;;;;;;;;;;;18.59;70.72;100581.44;5010738;28;20004;-71
2022/06/07 00:18:10;;;;;;;;;;;;;;;18.61;70.22;100573.59;5013475;28;19913;-70
2022/06/07 00:20:36;;;;;;;;;;;;;;;18.58;70.96;100588.09;5005474;28;20352;-70
2022/06/07 00:23:06;;;;;;;;;;;;;;;18.45;71.84;100581.59;5011839;28;19921;-69
2022/06/07 00:25:31;;;;;;;;;;;;;;;18.50;72.01;100579.22;5012252;28;19918;-72
2022/06/07 00:27:56;;;;;;;;;;;;;;;18.50;71.58;100576.50;5011693;28;20003;-70
2022/06/07 00:30:22;;;;;;;;;;;;;;;18.54;71.68;100562.81;5008023;28;19913;-69
2022/06/07 00:32:48;;;;;;;;;;;;;;;18.44;72.66;100569.94;5010569;28;20007;-71
2022/06/07 00:35:14;;;;;;;;;;;;;;;18.44;73.20;100561.75;5011141;28;20378;-70
2022/06/07 00:37:39;;;;;;;;;;;;;;;18.44;73.30;100569.94;4995464;28;19922;-68
2022/06/07 00:40:05;;;;;;;;;;;;;;;18.42;73.43;100569.59;5015113;28;20293;-69
2022/06/07 00:42:31;;;;;;;;;;;;;;;18.41;73.59;100576.19;5010473;28;20786;-69
2022/06/07 00:44:56;;;;;;;;;;;;;;;18.39;73.83;100564.16;5010895;28;19921;-70
2022/06/07 00:47:24;;;;;;;;;;;;;;;18.29;74.40;100557.63;5008757;28;19920;-72
2022/06/07 00:49:52;;;;;;;;;;;;;;;18.34;74.53;100557.19;5010800;28;19913;-69
2022/06/07 00:52:18;;;;;;;;;;;;;;;18.27;75.06;100548.31;5010300;28;19940;-69
2022/06/07 00:54:44;;;;;;;;;;;;;;;18.30;74.16;100534.66;5010716;28;19920;-69
2022/06/07 00:57:29;;;;;;;;;;;;;;;18.18;75.18;100534.41;5007996;28;19979;-72
2022/06/07 00:59:56;;;;;;;;;;;;;;;18.16;75.74;100528.59;5010948;28;20444;-70
2022/06/07 01:02:22;;;;;;;;;;;;;;;18.20;75.08;100524.66;5007631;28;19972;-73
2022/06/07 01:04:47;;;;;;;;;;;;;;;18.15;75.47;100529.78;5011310;28;20381;-70
2022/06/07 01:12:48;;;;;;;;;;;;;;;18.00;76.86;100526.47;5021861;28;19917;-72
2022/06/07 01:15:17;;;;;;;;;;;;;;;18.03;77.04;100520.19;5007520;28;19972;-70
2022/06/07 01:17:44;;;;;;;;;;;;;;;18.03;77.08;100523.69;5013519;28;19914;-70
2022/06/07 01:20:11;;;;;;;;;;;;;;;18.00;77.19;100513.59;5011020;28;19909;-70
2022/06/07 01:22:36;;;;;;;;;;;;;;;17.96;77.62;100517.56;4997029;28;19968;-70
2022/06/07 01:25:02;;;;;;;;;;;;;;;17.95;77.72;100514.06;5010444;28;19967;-70
2022/06/07 01:27:28;;;;;;;;;;;;;;;17.91;77.82;100502.44;5008079;28;19917;-69
2022/06/07 01:29:54;;;;;;;;;;;;;;;17.74;79.22;100506.13;5010975;28;19952;-70
2022/06/07 01:32:19;;;;;;;;;;;;;;;17.69;79.85;100503.84;5003408;28;19960;-74
2022/06/07 01:34:45;;;;;;;;;;;;;;;17.66;80.57;100507.38;5002359;28;20008;-69
2022/06/07 01:37:12;;;;;;;;;;;;;;;17.77;80.16;100505.31;5010431;28;19992;-69
2022/06/07 01:42:22;;;;;;;;;;;;;;;17.81;80.20;100510.72;5011563;28;19948;-72
2022/06/07 01:44:48;;;;;;;;;;;;;;;17.77;80.33;100509.97;5008571;28;19972;-69
2022/06/07 01:47:16;;;;;;;;;;;;;;;17.80;80.05;100512.69;5008288;28;19914;-70
2022/06/07 01:49:47;;;;;;;;;;;;;;;17.73;80.82;100503.81;5009944;28;19917;-70
2022/06/07 01:52:13;;;;;;;;;;;;;;;17.82;79.99;100502.16;5009503;28;19913;-72
2022/06/07 01:54:42;;;;;;;;;;;;;;;17.73;80.29;100488.22;5007837;28;19921;-70
2022/06/07 01:57:07;;;;;;;;;;;;;;;17.76;80.05;100492.09;5012933;28;19995;-70
2022/06/07 01:59:34;;;;;;;;;;;;;;;17.77;79.79;100496.34;5003678;28;19914;-70
2022/06/07 02:01:59;;;;;;;;;;;;;;;17.78;79.72;100490.53;5008144;28;19917;-70
2022/06/07 02:04:25;;;;;;;;;;;;;;;17.67;81.31;100489.84;5008850;28;19932;-73
2022/06/07 02:06:50;;;;;;;;;;;;;;;17.73;80.42;100488.22;5023260;28;19992;-69
2022/06/07 02:09:22;;;;;;;;;;;;;;;17.77;79.97;100471.84;5009835;28;20468;-70
2022/06/07 02:11:48;;;;;;;;;;;;;;;17.72;80.36;100475.03;5008685;28;19932;-69
2022/06/07 02:14:14;;;;;;;;;;;;;;;17.62;80.98;100479.41;5008190;28;19917;-70
2022/06/07 02:16:39;;;;;;;;;;;;;;;17.55;81.11;100470.56;5007660;28;19920;-71
2022/06/07 02:19:06;;;;;;;;;;;;;;;17.56;81.50;100474.81;4999261;28;19944;-72
2022/06/07 02:21:35;;;;;;;;;;;;;;;17.55;81.54;100476.78;5008954;28;19929;-69
2022/06/07 02:24:01;;;;;;;;;;;;;;;17.54;81.44;100466.28;5009568;28;20021;-72
2022/06/07 02:26:28;;;;;;;;;;;;;;;17.51;81.77;100470.59;5008964;28;20352;-70
2022/06/07 02:28:56;;;;;;;;;;;;;;;17.47;81.19;100458.94;5009478;28;20448;-71
2022/06/07 02:31:24;;;;;;;;;;;;;;;17.43;81.94;100471.81;5003040;28;19914;-72
2022/06/07 02:33:49;;;;;;;;;;;;;;;17.44;81.97;100465.19;5008295;28;20285;-70
2022/06/07 02:36:17;;;;;;;;;;;;;;;17.34;82.40;100463.38;5010476;28;20003;-73
2022/06/07 02:38:43;;;;;;;;;;;;;;;17.40;81.91;100450.81;5012323;28;20012;-70
2022/06/07 02:41:10;;;;;;;;;;;;;;;17.36;82.45;100452.84;5010993;28;20338;-72
2022/06/07 02:43:36;;;;;;;;;;;;;;;17.34;82.87;100457.91;5010846;28;20000;-70
2022/06/07 02:46:02;;;;;;;;;;;;;;;17.38;82.90;100466.78;5008528;28;20021;-69
2022/06/07 02:48:29;;;;;;;;;;;;;;;17.44;82.56;100459.72;5017229;28;19917;-70
2022/06/07 02:50:55;;;;;;;;;;;;;;;17.44;81.94;100458.97;5013279;28;19967;-69
2022/06/07 02:53:21;;;;;;;;;;;;;;;17.31;82.92;100442.38;5009274;28;19948;-69
2022/06/07 02:55:46;;;;;;;;;;;;;;;17.33;82.29;100448.19;5010487;28;20493;-69
2022/06/07 02:58:18;;;;;;;;;;;;;;;17.36;82.31;100441.16;5013645;28;19914;-70
2022/06/07 03:00:45;;;;;;;;;;;;;;;17.40;81.65;100437.22;5012840;28;19914;-73
2022/06/07 03:03:11;;;;;;;;;;;;;;;17.38;81.67;100436.84;5012080;28;19917;-70
2022/06/07 03:05:40;;;;;;;;;;;;;;;17.44;80.80;100440.66;5017705;28;19917;-71
2022/06/07 03:08:06;;;;;;;;;;;;;;;17.44;80.67;100437.19;5014131;28;19909;-74
2022/06/07 03:10:33;;;;;;;;;;;;;;;17.43;80.33;100433.69;5016156;28;20369;-72
2022/06/07 03:13:00;;;;;;;;;;;;;;;17.34;81.41;100433.41;5013425;28;19921;-70
2022/06/07 03:15:26;;;;;;;;;;;;;;;17.37;80.58;100431.81;5013821;28;19913;-68
2022/06/07 03:17:53;;;;;;;;;;;;;;;17.30;81.20;100437.34;5010706;28;19917;-70
2022/06/07 03:20:23;;;;;;;;;;;;;;;17.26;81.51;100421.06;5019806;28;20378;-69
2022/06/07 03:22:48;;;;;;;;;;;;;;;17.28;81.14;100424.16;5014374;28;20047;-75
2022/06/07 03:25:14;;;;;;;;;;;;;;;17.35;80.32;100429.50;5015423;28;19993;-69
2022/06/07 03:27:41;;;;;;;;;;;;;;;17.33;79.57;100425.63;5005878;28;19920;-70
2022/06/07 03:30:10;;;;;;;;;;;;;;;17.19;80.17;100423.84;5004723;28;19910;-75
2022/06/07 03:32:39;;;;;;;;;;;;;;;17.18;80.01;100430.47;5012902;28;19952;-69
2022/06/07 03:35:05;;;;;;;;;;;;;;;17.14;80.01;100427.78;5011557;28;19956;-69
2022/06/07 03:37:34;;;;;;;;;;;;;;;17.09;80.74;100427.47;5012789;28;19971;-69
2022/06/07 03:39:59;;;;;;;;;;;;;;;17.17;79.93;100430.88;5012796;28;19917;-69
2022/06/07 03:42:25;;;;;;;;;;;;;;;17.12;80.45;100419.25;5010536;28;20299;-70
2022/06/07 03:44:51;;;;;;;;;;;;;;;17.19;79.62;100425.81;5012425;28;19913;-69
2022/06/07 03:47:19;;;;;;;;;;;;;;;17.23;79.57;100427.28;5012283;28;20358;-72
2022/06/07 03:49:49;;;;;;;;;;;;;;;17.17;79.99;100428.91;5013737;28;20672;-72
2022/06/07 03:52:17;;;;;;;;;;;;;;;17.24;79.37;100417.97;5015938;28;19917;-71
2022/06/07 03:54:44;;;;;;;;;;;;;;;17.18;79.08;100425.03;5009021;28;19913;-71
2022/06/07 03:57:11;;;;;;;;;;;;;;;17.16;79.73;100421.94;5013475;28;19924;-70
2022/06/07 03:59:39;;;;;;;;;;;;;;;17.17;79.78;100428.91;5012519;28;19964;-69
2022/06/07 04:02:06;;;;;;;;;;;;;;;17.22;79.18;100423.03;5000154;28;19921;-71
2022/06/07 04:04:31;;;;;;;;;;;;;;;17.19;79.71;100420.34;5012132;28;20017;-70
2022/06/07 04:09:49;;;;;;;;;;;;;;;17.21;78.77;100424.19;5010008;28;19928;-72
2022/06/07 04:12:21;;;;;;;;;;;;;;;17.17;79.35;100426.19;5016610;28;20289;-72
2022/06/07 04:14:49;;;;;;;;;;;;;;;17.21;79.34;100428.91;5003143;28;19952;-71
2022/06/07 04:17:16;;;;;;;;;;;;;;;17.29;78.64;100428.41;5004054;28;19921;-71
2022/06/07 04:19:46;;;;;;;;;;;;;;;17.20;79.26;100428.13;5001190;28;19983;-72
2022/06/07 04:22:12;;;;;;;;;;;;;;;17.20;79.59;100421.88;5010915;28;19917;-70
2022/06/07 04:24:43;;;;;;;;;;;;;;;17.19;80.19;100431.25;5010220;28;20398;-71
2022/06/07 04:27:10;;;;;;;;;;;;;;;17.27;79.96;100424.53;5013858;28;19913;-72
2022/06/07 04:29:38;;;;;;;;;;;;;;;17.35;79.75;100440.41;5010373;28;19921;-72
2022/06/07 04:32:03;;;;;;;;;;;;;;;17.45;78.02;100431.34;5011946;28;19913;-71
2022/06/07 04:34:30;;;;;;;;;;;;;;;17.44;78.27;100424.34;5000193;28;19953;-70
2022/06/07 04:36:56;;;;;;;;;;;;;;;17.40;78.84;100426.31;5008429;28;19968;-71
2022/06/07 04:39:26;;;;;;;;;;;;;;;17.42;78.94;100437.59;5011103;28;19913;-71
2022/06/07 04:41:58;;;;;;;;;;;;;;;17.47;78.28;100433.66;5014869;28;19918;-72
2022/06/07 04:44:31;;;;;;;;;;;;;;;17.44;78.32;100427.06;5008022;28;20382;-72
2022/06/07 04:46:57;;;;;;;;;;;;;;;17.45;78.68;100430.56;5008809;28;19921;-72
2022/06/07 04:49:26;;;;;;;;;;;;;;;17.37;79.40;100427.16;5007479;28;19921;-70
2022/06/07 04:51:51;;;;;;;;;;;;;;;17.48;78.55;100424.31;5011595;28;19913;-72
2022/06/07 04:54:31;;;;;;;;;;;;;;;17.43;78.63;100420.09;5005916;28;19917;-70
2022/06/07 04:57:01;;;;;;;;;;;;;;;17.43;78.74;100419.31;5004912;28;19917;-70
2022/06/07 04:59:26;;;;;;;;;;;;;;;17.41;79.23;100430.59;5008427;28;19917;-70
2022/06/07 05:01:57;;;;;;;;;;;;;;;17.45;78.49;100414.22;5006245;28;19925;-70
2022/06/07 05:04:25;;;;;;;;;;;;;;;17.39;78.82;100416.63;5023264;28;20397;-70
2022/06/07 05:06:54;;;;;;;;;;;;;;;17.43;79.13;100413.84;5003638;28;19920;-70
2022/06/07 05:09:34;;;;;;;;;;;;;;;17.47;79.29;100411.88;5017565;28;20379;-70
2022/06/07 05:12:15;;;;;;;;;;;;;;;17.51;78.63;100415.34;5000822;28;19920;-70
2022/06/07 05:14:45;;;;;;;;;;;;;;;17.50;79.05;100416.53;5007125;28;20192;-70
2022/06/07 05:17:13;;;;;;;;;;;;;;;17.50;78.84;100422.00;5007154;28;20299;-70
2022/06/07 05:19:42;;;;;;;;;;;;;;;17.58;79.11;100415.25;5002828;28;20348;-70
2022/06/07 05:22:12;;;;;;;;;;;;;;;17.54;79.56;100426.19;5007384;28;20299;-70
2022/06/07 05:24:43;;;;;;;;;;;;;;;17.46;80.78;100423.94;5008032;28;19952;-70
2022/06/07 05:27:13;;;;;;;;;;;;;;;17.48;81.93;100433.28;5009541;28;19913;-70
2022/06/07 05:29:51;;;;;;;;;;;;;;;17.47;82.49;100426.25;5010127;28;19948;-71
2022/06/07 05:32:37;;;;;;;;;;;;;;;17.48;81.86;100425.09;5010403;28;20032;-70
2022/06/07 05:35:05;;;;;;;;;;;;;;;17.51;82.33;100432.47;5007703;28;19920;-70
2022/06/07 05:37:34;;;;;;;;;;;;;;;17.50;82.81;100425.47;5004294;28;20309;-70
2022/06/07 05:40:21;;;;;;;;;;;;;;;17.43;83.71;100424.75;5020192;28;20028;-70
2022/06/07 05:42:47;;;;;;;;;;;;;;;17.48;83.88;100435.22;5008184;28;19921;-70
2022/06/07 05:45:20;;;;;;;;;;;;;;;17.56;83.69;100429.28;4996886;28;20394;-70
2022/06/07 05:47:47;;;;;;;;;;;;;;;17.51;83.93;100428.97;5008416;28;19921;-70
2022/06/07 05:50:13;;;;;;;;;;;;;;;17.57;83.21;100424.63;5010037;28;19927;-70
2022/06/07 05:52:42;;;;;;;;;;;;;;;17.48;84.63;100425.09;5006963;28;20289;-70
2022/06/07 05:55:11;;;;;;;;;;;;;;;17.48;84.50;100427.81;5008842;28;19913;-70
2022/06/07 05:57:37;;;;;;;;;;;;;;;17.55;84.39;100422.31;5003572;28;19924;-70
2022/06/07 06:00:06;;;;;;;;;;;;;;;17.53;84.32;100426.59;5022065;28;19944;-70
2022/06/07 06:02:38;;;;;;;;;;;;;;;17.43;85.36;100436.41;5011386;28;19984;-70
2022/06/07 06:05:05;;;;;;;;;;;;;;;17.44;85.01;100429.03;5008184;28;20341;-70
2022/06/07 06:07:30;;;;;;;;;;;;;;;17.40;85.94;100420.88;5008893;28;19917;-70
2022/06/07 06:12:47;;;;;;;;;;;;;;;17.49;84.63;100418.50;5009755;28;20366;-70
2022/06/07 06:15:16;;;;;;;;;;;;;;;17.44;85.57;100416.16;5015824;28;19960;-70
2022/06/07 06:17:42;;;;;;;;;;;;;;;17.47;85.88;100423.53;5010242;28;19914;-70
2022/06/07 06:20:16;;;;;;;;;;;;;;;17.57;84.72;100408.28;5004649;28;20008;-71
2022/06/07 06:22:47;;;;;;;;;;;;;;;17.57;85.75;100411.00;5018477;28;19933;-70
2022/06/07 06:25:13;;;;;;;;;;;;;;;17.56;85.54;100404.78;5008666;28;20003;-70
2022/06/07 06:27:39;;;;;;;;;;;;;;;17.52;85.83;100409.50;5013810;28;19995;-70
2022/06/07 06:30:07;;;;;;;;;;;;;;;17.52;86.16;100408.72;5007414;28;19917;-70
2022/06/07 06:32:35;;;;;;;;;;;;;;;17.68;85.17;100396.06;5006345;28;19913;-70
2022/06/07 06:35:03;;;;;;;;;;;;;;;17.72;85.85;100398.75;5021484;28;20329;-70
2022/06/07 06:37:30;;;;;;;;;;;;;;;17.63;86.56;100398.47;5006427;28;19972;-70
2022/06/07 06:39:59;;;;;;;;;;;;;;;17.72;84.66;100396.81;5007410;28;19917;-70
2022/06/07 06:42:24;;;;;;;;;;;;;;;17.66;85.90;100400.38;5008937;28;19918;-70
2022/06/07 06:45:10;;;;;;;;;;;;;;;17.66;85.22;100395.72;5002740;28;20370;-70
2022/06/07 06:47:39;;;;;;;;;;;;;;;17.64;85.16;100381.72;5013625;28;20004;-70
2022/06/07 06:50:05;;;;;;;;;;;;;;;17.65;85.86;100391.41;5009055;28;19918;-70
2022/06/07 06:52:32;;;;;;;;;;;;;;;17.71;85.61;100392.50;5004342;28;19920;-70
2022/06/07 06:54:57;;;;;;;;;;;;;;;17.73;85.53;100394.84;5007572;28;19922;-70
2022/06/07 06:57:24;;;;;;;;;;;;;;;17.85;85.10;100391.56;5009051;28;19913;-70
2022/06/07 06:59:51;;;;;;;;;;;;;;;17.83;85.49;100391.97;5002952;28;19913;-70
2022/06/07 07:02:19;;;;;;;;;;;;;;;17.90;85.26;100400.03;5009319;28;19984;-70
2022/06/07 07:04:58;;;;;;;;;;;;;;;18.07;83.74;100390.09;5010189;28;19917;-70
2022/06/07 07:07:24;;;;;;;;;;;;;;;18.06;83.93;100390.50;5011153;28;19913;-70
2022/06/07 07:09:50;;;;;;;;;;;;;;;18.08;84.16;100383.44;5008435;28;19914;-70
2022/06/07 07:12:16;;;;;;;;;;;;;;;18.11;84.04;100388.09;5010379;28;19917;-70
2022/06/07 07:14:51;;;;;;;;;;;;;;;18.14;83.35;100389.22;5006912;28;19959;-70
2022/06/07 07:17:21;;;;;;;;;;;;;;;18.12;83.78;100383.41;5007430;28;19918;-70
2022/06/07 07:19:50;;;;;;;;;;;;;;;18.09;84.01;100389.66;5005811;28;19963;-70
2022/06/07 07:22:18;;;;;;;;;;;;;;;18.16;83.95;100393.06;5006376;28;20044;-70
2022/06/07 07:24:45;;;;;;;;;;;;;;;18.23;83.19;100386.75;5016969;28;19927;-70
2022/06/07 07:27:14;;;;;;;;;;;;;;;18.23;83.56;100376.63;5008370;28;19914;-70
2022/06/07 07:29:41;;;;;;;;;;;;;;;18.28;83.52;100375.34;5012512;28;20274;-70
2022/06/07 07:32:11;;;;;;;;;;;;;;;18.32;82.72;100379.56;5015202;28;19920;-70
2022/06/07 07:34:45;;;;;;;;;;;;;;;18.33;81.62;100378.38;5007464;28;19924;-70
2022/06/07 07:37:12;;;;;;;;;;;;;;;18.29;81.68;100377.66;5012383;28;19921;-70
2022/06/07 07:39:39;;;;;;;;;;;;;;;18.23;81.42;100368.44;5012359;28;20334;-70
2022/06/07 07:42:07;;;;;;;;;;;;;;;18.24;81.84;100375.41;4995898;28;19928;-70
2022/06/07 07:44:38;;;;;;;;;;;;;;;18.35;80.99;100369.81;5010548;28;19921;-70
2022/06/07 07:47:04;;;;;;;;;;;;;;;18.29;80.28;100369.47;5020427;28;20448;-70
2022/06/07 07:49:34;;;;;;;;;;;;;;;18.27;80.67;100362.91;5007404;28;19999;-70
2022/06/07 07:52:02;;;;;;;;;;;;;;;18.38;80.54;100379.88;5009885;28;19936;-70
2022/06/07 07:54:31;;;;;;;;;;;;;;;18.39;80.91;100370.53;5017161;28;19920;-70
2022/06/07 07:57:00;;;;;;;;;;;;;;;18.42;80.67;100361.50;5009859;28;20293;-70
2022/06/07 07:59:26;;;;;;;;;;;;;;;18.43;80.32;100365.78;5009621;28;20083;-70
2022/06/07 08:01:56;;;;;;;;;;;;;;;18.49;79.55;100362.19;5007270;28;19918;-70
2022/06/07 08:04:22;;;;;;;;;;;;;;;18.52;79.35;100352.41;4993918;28;19914;-70
2022/06/07 08:06:49;;;;;;;;;;;;;;;18.50;79.93;100362.97;4996483;28;20529;-70
2022/06/07 08:09:15;;;;;;;;;;;;;;;18.55;79.46;100367.94;5007189;28;20004;-70
2022/06/07 08:11:41;;;;;;;;;;;;;;;18.64;78.46;100370.91;5008173;28;19913;-70
2022/06/07 08:14:09;;;;;;;;;;;;;;;18.63;78.57;100366.63;5012028;28;19967;-70
2022/06/07 08:16:35;;;;;;;;;;;;;;;18.52;79.22;100360.59;5010848;28;19964;-70
2022/06/07 08:19:00;;;;;;;;;;;;;;;18.59;79.86;100361.25;5007257;28;19949;-70
2022/06/07 08:21:27;;;;;;;;;;;;;;;18.63;79.57;100361.94;5009620;28;20384;-70
2022/06/07 08:23:54;;;;;;;;;;;;;;;18.63;78.73;100369.34;5010330;28;20350;-70
2022/06/07 08:26:20;;;;;;;;;;;;;;;18.62;78.55;100373.28;5006307;28;19963;-70
2022/06/07 08:28:46;;;;;;;;;;;;;;;18.64;79.41;100360.00;5003801;28;19975;-70
2022/06/07 08:31:12;;;;;;;;;;;;;;;18.75;78.28;100366.03;5009544;28;20645;-70
2022/06/07 08:39:21;;;;;;;;;;;;;;;18.80;78.62;100369.03;5007676;28;19920;-70
2022/06/07 08:41:48;;;;;;;;;;;;;;;18.79;79.54;100367.50;5011464;28;19925;-70
2022/06/07 08:44:36;;;;;;;;;;;;;;;18.85;79.88;100359.63;5007024;28;19913;-70
2022/06/07 08:47:06;;;;;;;;;;;;;;;18.99;77.60;100362.06;5009845;28;19916;-70
2022/06/07 08:49:32;;;;;;;;;;;;;;;19.02;78.36;100363.19;5009044;28;19923;-70
2022/06/07 08:52:02;;;;;;;;;;;;;;;19.13;77.88;100367.25;5007464;28;19917;-70
2022/06/07 08:54:35;;;;;;;;;;;;;;;19.10;78.27;100368.13;5010010;28;19925;-71
2022/06/07 08:57:26;;;;;;;;;;;;;;;19.27;77.78;100364.25;5018205;28;20560;-70
2022/06/07 08:59:52;;;;;;;;;;;;;;;19.34;78.23;100368.81;5010419;28;20302;-70
2022/06/07 09:02:20;;;;;;;;;;;;;;;19.45;77.02;100364.69;5002434;28;19917;-70
2022/06/07 09:04:46;;;;;;;;;;;;;;;19.53;77.31;100360.63;5009579;28;19917;-70
2022/06/07 09:07:13;;;;;;;;;;;;;;;19.59;77.33;100372.59;5011557;28;19913;-70
2022/06/07 09:12:24;;;;;;;;;;;;;;;19.56;76.31;100359.78;5005588;28;20180;-70
2022/06/07 09:14:59;;;;;;;;;;;;;;;19.64;74.74;100363.13;5009908;28;20003;-70
2022/06/07 09:17:30;;;;;;;;;;;;;;;19.54;75.57;100367.63;5012312;28;19976;-69
2022/06/07 09:19:56;;;;;;;;;;;;;;;19.63;74.89;100358.84;5012673;28;20290;-70
2022/06/07 09:22:29;;;;;;;;;;;;;;;19.66;74.90;100363.50;5011307;28;19921;-69
2022/06/07 09:24:59;;;;;;;;;;;;;;;19.70;75.07;100356.72;5011277;28;19939;-70
2022/06/07 09:27:26;;;;;;;;;;;;;;;19.74;75.52;100362.16;5010846;28;19931;-69
2022/06/07 09:29:54;;;;;;;;;;;;;;;19.73;75.02;100358.63;5008664;28;19917;-71
2022/06/07 09:32:22;;;;;;;;;;;;;;;19.64;74.21;100361.19;5009812;28;19952;-69
2022/06/07 09:34:50;;;;;;;;;;;;;;;19.56;73.93;100364.47;5008132;28;19913;-70
2022/06/07 09:37:16;;;;;;;;;;;;;;;19.53;74.12;100360.63;5008916;28;19959;-71
2022/06/07 09:39:44;;;;;;;;;;;;;;;19.59;73.51;100364.41;5008405;28;20484;-68
2022/06/07 09:42:18;;;;;;;;;;;;;;;19.60;72.68;100360.50;5006188;28;19972;-68
2022/06/07 09:44:56;;;;;;;;;;;;;;;19.52;72.24;100352.84;5009014;28;19920;-69
2022/06/07 09:47:23;;;;;;;;;;;;;;;19.45;72.74;100353.75;5009895;28;19971;-72
2022/06/07 09:49:58;;;;;;;;;;;;;;;19.46;72.87;100360.00;5017619;28;19927;-70
2022/06/07 09:52:24;;;;;;;;;;;;;;;19.48;73.50;100355.66;5008756;28;20473;-71
2022/06/07 09:55:01;;;;;;;;;;;;;;;19.54;72.13;100358.66;5008144;28;19936;-71
2022/06/07 09:57:40;;;;;;;;;;;;;;;19.45;72.69;100356.50;5003451;28;20058;-69
2022/06/07 10:00:11;;;;;;;;;;;;;;;19.44;73.09;100363.16;5009127;28;19937;-69
2022/06/07 10:03:00;;;;;;;;;;;;;;;19.45;74.17;100345.56;5009494;28;20067;-69
2022/06/07 10:05:33;;;;;;;;;;;;;;;19.44;73.04;100362.38;5005562;28;19960;-74
2022/06/07 10:07:58;;;;;;;;;;;;;;;19.41;73.17;100363.25;4998016;28;20464;-69
2022/06/07 10:10:42;;;;;;;;;;;;;;;19.48;72.41;100355.66;5028426;28;19919;-72
2022/06/07 10:13:27;;;;;;;;;;;;;;;19.34;73.29;100347.75;5011846;28;19919;-70
2022/06/07 10:16:07;;;;;;;;;;;;;;;19.44;72.93;100362.38;5008775;28;20012;-70
2022/06/07 10:18:32;;;;;;;;;;;;;;;19.56;72.02;100346.13;5010533;28;19913;-69
2022/06/07 10:21:13;;;;;;;;;;;;;;;19.67;72.37;100341.19;5009435;28;19916;-68
2022/06/07 10:23:59;;;;;;;;;;;;;;;19.75;72.56;100358.97;5008486;28;19917;-69
2022/06/07 10:26:43;;;;;;;;;;;;;;;20.06;71.52;100353.97;5007128;28;19913;-70
2022/06/07 10:29:20;;;;;;;;;;;;;;;20.35;71.25;100354.09;5007096;28;20319;-70
2022/06/07 10:31:57;;;;;;;;;;;;;;;20.61;70.14;100342.13;5007786;28;20429;-69
2022/06/07 10:34:28;;;;;;;;;;;;;;;20.94;68.12;100357.28;5008531;28;19924;-74
2022/06/07 10:36:58;;;;;;;;;;;;;;;21.28;67.27;100348.53;5005715;28;19917;-73
2022/06/07 10:39:29;;;;;;;;;;;;;;;21.57;65.28;100365.69;5017727;28;20413;-71
2022/06/07 10:42:13;;;;;;;;;;;;;;;21.74;61.26;100345.19;5007860;28;19917;-72
2022/06/07 10:44:42;;;;;;;;;;;;;;;21.88;60.35;100342.06;5007725;28;19921;-73
2022/06/07 10:47:11;;;;;;;;;;;;;;;21.82;61.25;100340.28;5007867;28;19909;-69
2022/06/07 10:49:46;;;;;;;;;;;;;;;21.78;61.28;100342.34;5009088;28;20324;-69
2022/06/07 10:52:20;;;;;;;;;;;;;;;21.71;59.24;100348.03;5018278;28;19921;-69
2022/06/07 10:55:01;;;;;;;;;;;;;;;21.58;60.91;100339.81;5003738;28;19978;-71
2022/06/07 10:57:45;;;;;;;;;;;;;;;21.72;59.73;100349.59;5008772;28;20007;-69
2022/06/07 11:00:19;;;;;;;;;;;;;;;21.81;57.30;100336.03;5008811;28;19927;-73
2022/06/07 11:02:51;;;;;;;;;;;;;;;21.70;57.66;100344.53;5003373;28;20306;-69
2022/06/07 11:11:29;;;;;;;;;;;;;;;21.72;59.64;100344.88;4945607;28;19922;-73
2022/06/07 11:13:57;;;;;;;;;;;;;;;21.61;60.38;100336.19;4944705;28;21422;-72
2022/06/07 11:16:27;;;;;;;;;;;;;;;21.68;60.90;100343.44;4951370;28;19920;-70
2022/06/07 11:18:53;;;;;;;;;;;;;;;21.62;62.37;100350.69;4951671;28;19951;-71
2022/06/07 11:21:21;;;;;;;;;;;;;;;21.56;60.08;100332.00;4940261;28;19929;-71
2022/06/07 11:23:55;;;;;;;;;;;;;;;21.60;60.02;100336.63;4938811;29;19922;-75
2022/06/07 11:26:21;;;;;;;;;;;;;;;21.63;57.84;100339.28;4929947;29;20468;-75
2022/06/07 11:28:53;;;;;;;;;;;;;;;21.52;59.64;100345.06;4953905;28;20046;-72
2022/06/07 11:31:28;;;;;;;;;;;;;;;21.55;59.67;100343.41;4927551;29;19914;-72
2022/06/07 11:33:54;;;;;;;;;;;;;;;21.53;59.42;100343.09;4944540;28;19922;-70
2022/06/07 11:36:25;;;;;;;;;;;;;;;21.49;59.74;100343.19;4942834;28;20334;-75
2022/06/07 11:38:53;;;;;;;;;;;;;;;21.43;60.06;100344.94;4931888;29;19925;-71
2022/06/07 11:41:36;;;;;;;;;;;;;;;21.34;60.95;100350.31;4964247;28;20011;-70
2022/06/07 11:44:03;;;;;;;;;;;;;;;21.14;60.64;100355.16;5025199;28;20440;-72
2022/06/07 11:46:35;;;;;;;;;;;;;;;21.17;60.92;100357.06;5010712;28;20705;-70
2022/06/07 11:49:29;;;;;;;;;;;;;;;21.13;61.17;100347.38;5007170;28;19917;-71
2022/06/07 11:51:54;;;;;;;;;;;;;;;21.03;62.41;100359.41;5010924;28;19937;-70
2022/06/07 11:54:40;;;;;;;;;;;;;;;20.96;63.12;100362.31;5012490;28;19913;-70
2022/06/07 11:57:24;;;;;;;;;;;;;;;20.91;63.55;100365.56;4985749;28;19917;-76
2022/06/07 11:59:51;;;;;;;;;;;;;;;20.82;63.38;100352.50;4996521;28;20344;-72
2022/06/07 12:02:17;;;;;;;;;;;;;;;20.84;62.75;100369.28;5007908;28;20289;-71
2022/06/07 12:04:43;;;;;;;;;;;;;;;20.91;63.13;100358.13;4998681;28;19924;-74
2022/06/07 12:07:14;;;;;;;;;;;;;;;20.96;63.51;100363.09;5007431;28;19928;-73
2022/06/07 12:09:45;;;;;;;;;;;;;;;20.98;63.09;100357.91;5007230;28;19955;-71
2022/06/07 12:12:35;;;;;;;;;;;;;;;21.00;63.91;100363.72;5006077;28;20298;-71
2022/06/07 12:15:09;;;;;;;;;;;;;;;21.02;63.06;100361.38;5007251;28;20570;-74
2022/06/07 12:17:34;;;;;;;;;;;;;;;20.98;63.23;100357.19;5011165;28;20056;-70
2022/06/07 12:20:00;;;;;;;;;;;;;;;20.97;61.87;100367.34;5009666;28;19996;-73
2022/06/07 12:22:28;;;;;;;;;;;;;;;20.87;61.51;100371.13;5010806;28;19917;-72
2022/06/07 12:24:58;;;;;;;;;;;;;;;20.62;63.42;100365.53;5010769;28;19913;-72
2022/06/07 12:27:28;;;;;;;;;;;;;;;20.63;63.97;100358.88;5011338;28;19913;-74
2022/06/07 12:29:57;;;;;;;;;;;;;;;20.66;64.53;100364.25;5009938;28;19917;-71
2022/06/07 12:32:33;;;;;;;;;;;;;;;20.71;64.11;100352.03;5009221;28;19935;-77
2022/06/07 12:35:06;;;;;;;;;;;;;;;20.73;64.56;100349.59;5009051;28;19914;-72
2022/06/07 12:37:32;;;;;;;;;;;;;;;20.77;64.49;100358.50;5005598;28;20393;-74
2022/06/07 12:39:58;;;;;;;;;;;;;;;20.88;64.34;100369.94;5010100;28;19917;-71
2022/06/07 12:42:29;;;;;;;;;;;;;;;20.88;64.05;100360.97;5009241;28;20009;-72
2022/06/07 12:44:54;;;;;;;;;;;;;;;20.87;63.98;100360.19;5004272;28;19957;-71
2022/06/07 12:47:22;;;;;;;;;;;;;;;20.82;65.29;100362.69;5003155;28;19959;-72
2022/06/07 12:49:48;;;;;;;;;;;;;;;20.93;65.22;100369.41;5010025;28;20032;-71
2022/06/07 12:52:14;;;;;;;;;;;;;;;21.02;64.01;100366.84;5012039;28;19996;-71
2022/06/07 12:54:46;;;;;;;;;;;;;;;21.05;63.82;100366.00;5009845;28;19913;-74
2022/06/07 12:57:15;;;;;;;;;;;;;;;21.05;64.98;100363.25;5011241;28;20016;-71
2022/06/07 12:59:42;;;;;;;;;;;;;;;21.13;64.75;100366.56;5008952;28;19936;-73
2022/06/07 13:02:14;;;;;;;;;;;;;;;21.11;64.72;100360.75;5008538;28;20296;-72
2022/06/07 13:04:45;;;;;;;;;;;;;;;21.00;65.55;100358.25;5021682;28;20000;-76
2022/06/07 13:07:20;;;;;;;;;;;;;;;21.00;65.98;100361.00;5004559;28;20016;-73
2022/06/07 13:09:48;;;;;;;;;;;;;;;21.03;64.89;100367.63;5008790;28;19920;-70
2022/06/07 13:12:22;;;;;;;;;;;;;;;20.99;64.33;100362.22;5005694;28;19967;-71
2022/06/07 13:14:52;;;;;;;;;;;;;;;20.82;64.67;100357.97;5010286;28;20415;-72